sensor_id;sensor_type;location;lat;lon;timestamp;P1;durP1;ratioP1;P2;durP2;ratioP2
39214;SDS011;24932;51.746;14.334;2022-11-15T00:00:40;90.4;;;29.7;;
39214;SDS011;24932;51.746;14.334;2022-11-15T00:04:41;92.17;;;31.97;;
39214;SDS011;24932;51.746;14.334;2022-11-15T00:08:40;91.7;;;31.9;;
39214;SDS011;24932;51.746;14.334;2022-11-15T00:12:40;86.3;;;32.87;;
39214;SDS011;24932;51.746;14.334;2022-11-15T00:16:40;95.1;;;31.93;;
39214;SDS011;24932;51.746;14.334;2022-11-15T00:20:41;99.73;;;33.17;;
39214;SDS011;24932;51.746;14.334;2022-11-15T00:24:40;105.7;;;32.67;;
39214;SDS011;24932;51.746;14.334;2022-11-15T00:28:40;123.53;;;35.1;;
39214;SDS011;24932;51.746;14.334;2022-11-15T00:32:40;131.43;;;35.7;;
39214;SDS011;24932;51.746;14.334;2022-11-15T00:36:40;100.3;;;34.63;;
39214;SDS011;24932;51.746;14.334;2022-11-15T00:40:40;114.27;;;36.0;;
39214;SDS011;24932;51.746;14.334;2022-11-15T00:44:40;103.17;;;34.73;;
39214;SDS011;24932;51.746;14.334;2022-11-15T00:48:40;119.7;;;34.1;;
39214;SDS011;24932;51.746;14.334;2022-11-15T00:52:40;108.77;;;34.57;;
39214;SDS011;24932;51.746;14.334;2022-11-15T00:56:41;107.97;;;34.17;;
39214;SDS011;24932;51.746;14.334;2022-11-15T01:00:41;118.8;;;33.83;;
39214;SDS011;24932;51.746;14.334;2022-11-15T01:04:40;113.9;;;33.73;;
39214;SDS011;24932;51.746;14.334;2022-11-15T01:08:40;119.73;;;39.17;;
39214;SDS011;24932;51.746;14.334;2022-11-15T01:12:40;141.6;;;42.73;;
39214;SDS011;24932;51.746;14.334;2022-11-15T01:16:41;162.37;;;46.1;;
39214;SDS011;24932;51.746;14.334;2022-11-15T01:20:41;182.2;;;46.57;;
39214;SDS011;24932;51.746;14.334;2022-11-15T01:24:40;158.5;;;45.9;;
39214;SDS011;24932;51.746;14.334;2022-11-15T01:28:41;153.37;;;47.2;;
39214;SDS011;24932;51.746;14.334;2022-11-15T01:32:40;175.1;;;48.8;;
39214;SDS011;24932;51.746;14.334;2022-11-15T01:36:41;174.83;;;48.5;;
39214;SDS011;24932;51.746;14.334;2022-11-15T01:40:40;157.37;;;46.87;;
39214;SDS011;24932;51.746;14.334;2022-11-15T01:44:42;148.53;;;46.3;;
39214;SDS011;24932;51.746;14.334;2022-11-15T01:48:40;168.4;;;49.8;;
39214;SDS011;24932;51.746;14.334;2022-11-15T01:52:40;155.6;;;48.87;;
39214;SDS011;24932;51.746;14.334;2022-11-15T01:56:42;168.9;;;46.93;;
39214;SDS011;24932;51.746;14.334;2022-11-15T02:00:40;166.8;;;49.3;;
39214;SDS011;24932;51.746;14.334;2022-11-15T02:04:41;183.23;;;48.2;;
39214;SDS011;24932;51.746;14.334;2022-11-15T02:08:40;166.53;;;48.9;;
39214;SDS011;24932;51.746;14.334;2022-11-15T02:12:41;170.97;;;48.53;;
39214;SDS011;24932;51.746;14.334;2022-11-15T02:16:42;158.7;;;47.93;;
39214;SDS011;24932;51.746;14.334;2022-11-15T02:20:42;169.93;;;47.87;;
39214;SDS011;24932;51.746;14.334;2022-11-15T02:24:45;146.53;;;45.57;;
39214;SDS011;24932;51.746;14.334;2022-11-15T02:28:44;172.6;;;46.6;;
39214;SDS011;24932;51.746;14.334;2022-11-15T02:32:40;175.13;;;48.3;;
39214;SDS011;24932;51.746;14.334;2022-11-15T02:36:41;176.53;;;48.07;;
39214;SDS011;24932;51.746;14.334;2022-11-15T02:40:41;193.83;;;49.93;;
39214;SDS011;24932;51.746;14.334;2022-11-15T02:44:41;193.87;;;49.2;;
39214;SDS011;24932;51.746;14.334;2022-11-15T02:48:40;186.27;;;51.03;;
39214;SDS011;24932;51.746;14.334;2022-11-15T02:52:41;179.4;;;51.57;;
39214;SDS011;24932;51.746;14.334;2022-11-15T02:56:40;203.47;;;49.67;;
39214;SDS011;24932;51.746;14.334;2022-11-15T03:00:41;184.47;;;53.93;;
39214;SDS011;24932;51.746;14.334;2022-11-15T03:04:42;161.47;;;46.7;;
39214;SDS011;24932;51.746;14.334;2022-11-15T03:08:44;147.1;;;49.07;;
39214;SDS011;24932;51.746;14.334;2022-11-15T03:12:42;185.37;;;53.23;;
39214;SDS011;24932;51.746;14.334;2022-11-15T03:16:41;177.57;;;51.37;;
39214;SDS011;24932;51.746;14.334;2022-11-15T03:20:40;174.53;;;52.3;;
39214;SDS011;24932;51.746;14.334;2022-11-15T03:24:40;160.47;;;49.07;;
39214;SDS011;24932;51.746;14.334;2022-11-15T03:28:42;170.07;;;51.53;;
39214;SDS011;24932;51.746;14.334;2022-11-15T03:32:41;174.97;;;48.2;;
39214;SDS011;24932;51.746;14.334;2022-11-15T03:36:40;166.53;;;48.4;;
39214;SDS011;24932;51.746;14.334;2022-11-15T03:40:41;158.13;;;47.87;;
39214;SDS011;24932;51.746;14.334;2022-11-15T03:44:41;161.33;;;49.07;;
39214;SDS011;24932;51.746;14.334;2022-11-15T03:48:41;159.9;;;48.97;;
39214;SDS011;24932;51.746;14.334;2022-11-15T03:52:41;194.5;;;50.7;;
39214;SDS011;24932;51.746;14.334;2022-11-15T03:56:40;157.0;;;49.6;;
39214;SDS011;24932;51.746;14.334;2022-11-15T04:00:40;167.1;;;50.57;;
39214;SDS011;24932;51.746;14.334;2022-11-15T04:04:40;196.83;;;51.33;;
39214;SDS011;24932;51.746;14.334;2022-11-15T04:08:41;166.0;;;47.17;;
39214;SDS011;24932;51.746;14.334;2022-11-15T04:12:42;189.17;;;51.5;;
39214;SDS011;24932;51.746;14.334;2022-11-15T04:16:44;163.57;;;51.37;;
39214;SDS011;24932;51.746;14.334;2022-11-15T04:20:40;156.1;;;48.6;;
39214;SDS011;24932;51.746;14.334;2022-11-15T04:24:40;180.5;;;51.43;;
39214;SDS011;24932;51.746;14.334;2022-11-15T04:28:40;181.13;;;50.37;;
39214;SDS011;24932;51.746;14.334;2022-11-15T04:32:39;162.5;;;48.57;;
39214;SDS011;24932;51.746;14.334;2022-11-15T04:36:40;161.1;;;44.3;;
39214;SDS011;24932;51.746;14.334;2022-11-15T04:40:40;181.6;;;48.9;;
39214;SDS011;24932;51.746;14.334;2022-11-15T04:44:40;154.8;;;45.33;;
39214;SDS011;24932;51.746;14.334;2022-11-15T04:48:41;165.4;;;45.97;;
39214;SDS011;24932;51.746;14.334;2022-11-15T04:52:41;140.73;;;44.7;;
39214;SDS011;24932;51.746;14.334;2022-11-15T04:56:40;156.03;;;46.43;;
39214;SDS011;24932;51.746;14.334;2022-11-15T05:00:40;150.03;;;41.53;;
39214;SDS011;24932;51.746;14.334;2022-11-15T05:04:40;146.37;;;41.67;;
39214;SDS011;24932;51.746;14.334;2022-11-15T05:08:40;156.47;;;44.57;;
39214;SDS011;24932;51.746;14.334;2022-11-15T05:12:40;153.77;;;42.23;;
39214;SDS011;24932;51.746;14.334;2022-11-15T05:16:41;152.9;;;43.27;;
39214;SDS011;24932;51.746;14.334;2022-11-15T05:20:40;128.07;;;41.5;;
39214;SDS011;24932;51.746;14.334;2022-11-15T05:24:40;157.67;;;42.3;;
39214;SDS011;24932;51.746;14.334;2022-11-15T05:28:40;150.27;;;44.17;;
39214;SDS011;24932;51.746;14.334;2022-11-15T05:32:40;134.73;;;41.03;;
39214;SDS011;24932;51.746;14.334;2022-11-15T05:36:41;151.5;;;44.37;;
39214;SDS011;24932;51.746;14.334;2022-11-15T05:40:40;121.87;;;42.67;;
39214;SDS011;24932;51.746;14.334;2022-11-15T05:44:41;140.47;;;39.53;;
39214;SDS011;24932;51.746;14.334;2022-11-15T05:48:41;132.1;;;42.4;;
39214;SDS011;24932;51.746;14.334;2022-11-15T05:52:41;150.87;;;40.93;;
39214;SDS011;24932;51.746;14.334;2022-11-15T05:56:40;151.67;;;44.93;;
39214;SDS011;24932;51.746;14.334;2022-11-15T06:00:40;151.4;;;44.33;;
39214;SDS011;24932;51.746;14.334;2022-11-15T06:04:40;155.97;;;45.4;;
39214;SDS011;24932;51.746;14.334;2022-11-15T06:08:40;138.67;;;42.2;;
39214;SDS011;24932;51.746;14.334;2022-11-15T06:12:40;156.5;;;45.2;;
39214;SDS011;24932;51.746;14.334;2022-11-15T06:16:40;162.3;;;45.93;;
39214;SDS011;24932;51.746;14.334;2022-11-15T06:20:40;145.8;;;43.3;;
39214;SDS011;24932;51.746;14.334;2022-11-15T06:24:40;172.43;;;47.27;;
39214;SDS011;24932;51.746;14.334;2022-11-15T06:28:41;175.37;;;46.8;;
39214;SDS011;24932;51.746;14.334;2022-11-15T06:32:40;160.7;;;47.23;;
39214;SDS011;24932;51.746;14.334;2022-11-15T06:36:39;192.07;;;46.8;;
39214;SDS011;24932;51.746;14.334;2022-11-15T06:40:41;155.8;;;44.53;;
39214;SDS011;24932;51.746;14.334;2022-11-15T06:44:41;152.6;;;43.33;;
39214;SDS011;24932;51.746;14.334;2022-11-15T06:48:40;145.2;;;42.37;;
39214;SDS011;24932;51.746;14.334;2022-11-15T06:52:40;174.27;;;42.87;;
39214;SDS011;24932;51.746;14.334;2022-11-15T06:56:41;157.97;;;45.63;;
39214;SDS011;24932;51.746;14.334;2022-11-15T07:00:41;171.77;;;47.5;;
39214;SDS011;24932;51.746;14.334;2022-11-15T07:04:40;149.7;;;47.43;;
39214;SDS011;24932;51.746;14.334;2022-11-15T07:08:40;176.8;;;47.1;;
39214;SDS011;24932;51.746;14.334;2022-11-15T07:12:40;152.3;;;44.53;;
39214;SDS011;24932;51.746;14.334;2022-11-15T07:16:39;160.67;;;47.53;;
39214;SDS011;24932;51.746;14.334;2022-11-15T07:20:40;159.1;;;50.5;;
39214;SDS011;24932;51.746;14.334;2022-11-15T07:24:40;166.67;;;49.57;;
39214;SDS011;24932;51.746;14.334;2022-11-15T07:28:40;145.83;;;47.07;;
39214;SDS011;24932;51.746;14.334;2022-11-15T07:32:40;170.57;;;52.2;;
39214;SDS011;24932;51.746;14.334;2022-11-15T07:36:40;160.5;;;49.23;;
39214;SDS011;24932;51.746;14.334;2022-11-15T07:40:40;144.2;;;49.03;;
39214;SDS011;24932;51.746;14.334;2022-11-15T07:44:40;143.6;;;46.63;;
39214;SDS011;24932;51.746;14.334;2022-11-15T07:48:45;132.93;;;46.53;;
39214;SDS011;24932;51.746;14.334;2022-11-15T07:52:41;133.85;;;44.15;;
39214;SDS011;24932;51.746;14.334;2022-11-15T07:56:40;124.53;;;44.13;;
39214;SDS011;24932;51.746;14.334;2022-11-15T08:00:40;149.65;;;46.78;;
39214;SDS011;24932;51.746;14.334;2022-11-15T08:04:40;127.38;;;46.85;;
39214;SDS011;24932;51.746;14.334;2022-11-15T08:08:40;127.28;;;44.58;;
39214;SDS011;24932;51.746;14.334;2022-11-15T08:12:41;108.55;;;43.17;;
39214;SDS011;24932;51.746;14.334;2022-11-15T08:16:40;110.25;;;42.25;;
39214;SDS011;24932;51.746;14.334;2022-11-15T08:20:41;115.45;;;42.75;;
39214;SDS011;24932;51.746;14.334;2022-11-15T08:24:40;106.25;;;39.92;;
39214;SDS011;24932;51.746;14.334;2022-11-15T08:28:41;85.35;;;37.45;;
39214;SDS011;24932;51.746;14.334;2022-11-15T08:32:41;76.25;;;36.0;;
39214;SDS011;24932;51.746;14.334;2022-11-15T08:36:46;79.43;;;34.2;;
39214;SDS011;24932;51.746;14.334;2022-11-15T08:40:39;64.45;;;32.4;;
39214;SDS011;24932;51.746;14.334;2022-11-15T08:44:40;57.92;;;31.6;;
39214;SDS011;24932;51.746;14.334;2022-11-15T08:48:40;66.37;;;30.65;;
39214;SDS011;24932;51.746;14.334;2022-11-15T08:52:41;58.75;;;30.05;;
39214;SDS011;24932;51.746;14.334;2022-11-15T08:56:40;62.95;;;30.12;;
39214;SDS011;24932;51.746;14.334;2022-11-15T09:00:40;54.53;;;29.55;;
39214;SDS011;24932;51.746;14.334;2022-11-15T09:04:41;43.22;;;26.37;;
39214;SDS011;24932;51.746;14.334;2022-11-15T09:08:48;44.83;;;26.23;;
39214;SDS011;24932;51.746;14.334;2022-11-15T09:12:40;42.1;;;23.25;;
39214;SDS011;24932;51.746;14.334;2022-11-15T09:16:40;39.92;;;22.75;;
39214;SDS011;24932;51.746;14.334;2022-11-15T09:20:41;34.15;;;21.25;;
39214;SDS011;24932;51.746;14.334;2022-11-15T09:24:40;33.58;;;19.45;;
39214;SDS011;24932;51.746;14.334;2022-11-15T09:28:40;32.72;;;19.62;;
39214;SDS011;24932;51.746;14.334;2022-11-15T09:32:40;32.0;;;18.35;;
39214;SDS011;24932;51.746;14.334;2022-11-15T09:36:39;36.13;;;17.65;;
39214;SDS011;24932;51.746;14.334;2022-11-15T09:40:40;28.83;;;16.9;;
39214;SDS011;24932;51.746;14.334;2022-11-15T09:44:42;32.05;;;17.48;;
39214;SDS011;24932;51.746;14.334;2022-11-15T09:48:44;28.85;;;16.87;;
39214;SDS011;24932;51.746;14.334;2022-11-15T09:52:41;27.4;;;17.2;;
39214;SDS011;24932;51.746;14.334;2022-11-15T09:56:41;26.52;;;16.2;;
39214;SDS011;24932;51.746;14.334;2022-11-15T10:00:48;24.45;;;15.02;;
39214;SDS011;24932;51.746;14.334;2022-11-15T10:04:41;28.5;;;15.05;;
39214;SDS011;24932;51.746;14.334;2022-11-15T10:08:45;25.23;;;15.1;;
39214;SDS011;24932;51.746;14.334;2022-11-15T10:12:40;22.75;;;15.05;;
39214;SDS011;24932;51.746;14.334;2022-11-15T10:17:51;27.27;;;14.32;;
39214;SDS011;24932;51.746;14.334;2022-11-15T10:20:44;20.65;;;12.6;;
39214;SDS011;24932;51.746;14.334;2022-11-15T10:24:41;23.02;;;13.1;;
39214;SDS011;24932;51.746;14.334;2022-11-15T10:28:40;18.9;;;13.0;;
39214;SDS011;24932;51.746;14.334;2022-11-15T10:32:40;16.48;;;11.32;;
39214;SDS011;24932;51.746;14.334;2022-11-15T10:36:43;20.45;;;12.0;;
39214;SDS011;24932;51.746;14.334;2022-11-15T10:40:41;21.65;;;13.1;;
39214;SDS011;24932;51.746;14.334;2022-11-15T10:44:41;19.7;;;11.57;;
39214;SDS011;24932;51.746;14.334;2022-11-15T10:48:40;16.3;;;11.2;;
39214;SDS011;24932;51.746;14.334;2022-11-15T10:52:43;22.5;;;13.52;;
39214;SDS011;24932;51.746;14.334;2022-11-15T10:56:40;23.38;;;12.13;;
39214;SDS011;24932;51.746;14.334;2022-11-15T11:00:40;18.33;;;10.9;;
39214;SDS011;24932;51.746;14.334;2022-11-15T11:04:48;18.17;;;10.5;;
39214;SDS011;24932;51.746;14.334;2022-11-15T11:08:41;16.5;;;10.8;;
39214;SDS011;24932;51.746;14.334;2022-11-15T11:12:40;18.92;;;9.98;;
39214;SDS011;24932;51.746;14.334;2022-11-15T11:16:42;15.5;;;11.48;;
39214;SDS011;24932;51.746;14.334;2022-11-15T11:20:41;18.0;;;9.88;;
39214;SDS011;24932;51.746;14.334;2022-11-15T11:24:43;14.95;;;9.55;;
39214;SDS011;24932;51.746;14.334;2022-11-15T11:28:41;16.85;;;9.8;;
39214;SDS011;24932;51.746;14.334;2022-11-15T11:32:45;18.4;;;10.15;;
39214;SDS011;24932;51.746;14.334;2022-11-15T11:36:42;13.6;;;9.4;;
39214;SDS011;24932;51.746;14.334;2022-11-15T11:40:43;22.6;;;9.1;;
39214;SDS011;24932;51.746;14.334;2022-11-15T11:44:43;17.02;;;9.15;;
39214;SDS011;24932;51.746;14.334;2022-11-15T11:48:41;13.48;;;9.93;;
39214;SDS011;24932;51.746;14.334;2022-11-15T11:52:42;13.2;;;8.6;;
39214;SDS011;24932;51.746;14.334;2022-11-15T11:56:41;17.1;;;8.27;;
39214;SDS011;24932;51.746;14.334;2022-11-15T12:00:41;14.15;;;7.87;;
39214;SDS011;24932;51.746;14.334;2022-11-15T12:04:42;17.27;;;8.98;;
39214;SDS011;24932;51.746;14.334;2022-11-15T12:08:41;13.25;;;7.05;;
39214;SDS011;24932;51.746;14.334;2022-11-15T12:12:41;15.0;;;8.0;;
39214;SDS011;24932;51.746;14.334;2022-11-15T12:16:40;10.63;;;6.72;;
39214;SDS011;24932;51.746;14.334;2022-11-15T12:20:40;12.95;;;7.28;;
39214;SDS011;24932;51.746;14.334;2022-11-15T12:24:41;10.02;;;6.18;;
39214;SDS011;24932;51.746;14.334;2022-11-15T12:29:10;11.1;;;6.7;;
39214;SDS011;24932;51.746;14.334;2022-11-15T12:32:49;13.82;;;6.28;;
39214;SDS011;24932;51.746;14.334;2022-11-15T12:36:40;8.82;;;6.12;;
39214;SDS011;24932;51.746;14.334;2022-11-15T12:44:56;13.38;;;6.05;;
39214;SDS011;24932;51.746;14.334;2022-11-15T12:48:46;11.25;;;6.43;;
39214;SDS011;24932;51.746;14.334;2022-11-15T12:52:53;8.05;;;5.93;;
39214;SDS011;24932;51.746;14.334;2022-11-15T12:56:40;11.1;;;6.78;;
39214;SDS011;24932;51.746;14.334;2022-11-15T13:00:40;12.93;;;5.85;;
39214;SDS011;24932;51.746;14.334;2022-11-15T13:04:40;10.2;;;5.2;;
39214;SDS011;24932;51.746;14.334;2022-11-15T13:08:45;9.25;;;5.95;;
39214;SDS011;24932;51.746;14.334;2022-11-15T13:12:49;10.3;;;5.72;;
39214;SDS011;24932;51.746;14.334;2022-11-15T13:16:40;10.43;;;6.47;;
39214;SDS011;24932;51.746;14.334;2022-11-15T13:20:44;8.77;;;5.85;;
39214;SDS011;24932;51.746;14.334;2022-11-15T13:24:40;11.15;;;6.82;;
39214;SDS011;24932;51.746;14.334;2022-11-15T13:28:42;8.9;;;5.82;;
39214;SDS011;24932;51.746;14.334;2022-11-15T13:32:39;10.8;;;6.47;;
39214;SDS011;24932;51.746;14.334;2022-11-15T13:36:40;10.2;;;6.05;;
39214;SDS011;24932;51.746;14.334;2022-11-15T13:40:40;10.9;;;5.85;;
39214;SDS011;24932;51.746;14.334;2022-11-15T13:44:40;9.5;;;6.22;;
39214;SDS011;24932;51.746;14.334;2022-11-15T13:48:40;13.35;;;7.5;;
39214;SDS011;24932;51.746;14.334;2022-11-15T13:52:41;9.7;;;7.22;;
39214;SDS011;24932;51.746;14.334;2022-11-15T13:56:40;10.85;;;6.97;;
39214;SDS011;24932;51.746;14.334;2022-11-15T14:00:41;11.82;;;7.87;;
39214;SDS011;24932;51.746;14.334;2022-11-15T14:04:45;15.5;;;7.32;;
39214;SDS011;24932;51.746;14.334;2022-11-15T14:08:40;12.18;;;7.3;;
39214;SDS011;24932;51.746;14.334;2022-11-15T14:12:49;9.7;;;7.32;;
39214;SDS011;24932;51.746;14.334;2022-11-15T14:16:41;13.0;;;8.55;;
39214;SDS011;24932;51.746;14.334;2022-11-15T14:20:40;15.57;;;9.38;;
39214;SDS011;24932;51.746;14.334;2022-11-15T14:24:40;11.32;;;7.12;;
39214;SDS011;24932;51.746;14.334;2022-11-15T14:28:41;11.27;;;7.0;;
39214;SDS011;24932;51.746;14.334;2022-11-15T14:32:42;11.45;;;7.07;;
39214;SDS011;24932;51.746;14.334;2022-11-15T14:36:40;13.38;;;8.05;;
39214;SDS011;24932;51.746;14.334;2022-11-15T14:40:40;13.88;;;7.37;;
39214;SDS011;24932;51.746;14.334;2022-11-15T14:44:46;11.63;;;7.1;;
39214;SDS011;24932;51.746;14.334;2022-11-15T14:48:40;14.02;;;8.0;;
39214;SDS011;24932;51.746;14.334;2022-11-15T14:52:40;20.05;;;8.8;;
39214;SDS011;24932;51.746;14.334;2022-11-15T14:56:40;15.63;;;9.38;;
39214;SDS011;24932;51.746;14.334;2022-11-15T15:00:41;16.5;;;9.05;;
39214;SDS011;24932;51.746;14.334;2022-11-15T15:04:40;14.85;;;9.43;;
39214;SDS011;24932;51.746;14.334;2022-11-15T15:08:41;16.9;;;9.77;;
39214;SDS011;24932;51.746;14.334;2022-11-15T15:12:41;20.12;;;9.52;;
39214;SDS011;24932;51.746;14.334;2022-11-15T15:16:40;17.23;;;12.75;;
39214;SDS011;24932;51.746;14.334;2022-11-15T15:20:41;16.9;;;10.55;;
39214;SDS011;24932;51.746;14.334;2022-11-15T15:24:40;21.73;;;11.82;;
39214;SDS011;24932;51.746;14.334;2022-11-15T15:28:41;17.02;;;10.15;;
39214;SDS011;24932;51.746;14.334;2022-11-15T15:32:40;19.33;;;10.5;;
39214;SDS011;24932;51.746;14.334;2022-11-15T15:36:40;18.6;;;10.6;;
39214;SDS011;24932;51.746;14.334;2022-11-15T15:40:40;15.82;;;10.52;;
39214;SDS011;24932;51.746;14.334;2022-11-15T15:44:40;18.75;;;11.15;;
39214;SDS011;24932;51.746;14.334;2022-11-15T15:48:40;22.48;;;12.75;;
39214;SDS011;24932;51.746;14.334;2022-11-15T15:52:41;16.05;;;9.93;;
39214;SDS011;24932;51.746;14.334;2022-11-15T15:56:40;17.65;;;11.77;;
39214;SDS011;24932;51.746;14.334;2022-11-15T16:00:40;21.62;;;11.2;;
39214;SDS011;24932;51.746;14.334;2022-11-15T16:04:40;23.58;;;11.85;;
39214;SDS011;24932;51.746;14.334;2022-11-15T16:09:14;26.92;;;14.43;;
39214;SDS011;24932;51.746;14.334;2022-11-15T16:12:41;29.25;;;12.15;;
39214;SDS011;24932;51.746;14.334;2022-11-15T16:16:40;21.7;;;11.2;;
39214;SDS011;24932;51.746;14.334;2022-11-15T16:20:41;25.0;;;13.18;;
39214;SDS011;24932;51.746;14.334;2022-11-15T16:24:41;26.75;;;12.37;;
39214;SDS011;24932;51.746;14.334;2022-11-15T16:28:40;26.15;;;11.77;;
39214;SDS011;24932;51.746;14.334;2022-11-15T16:32:40;25.73;;;13.7;;
39214;SDS011;24932;51.746;14.334;2022-11-15T16:36:40;22.95;;;13.9;;
39214;SDS011;24932;51.746;14.334;2022-11-15T16:40:40;29.27;;;14.3;;
39214;SDS011;24932;51.746;14.334;2022-11-15T16:44:40;24.95;;;14.45;;
39214;SDS011;24932;51.746;14.334;2022-11-15T16:48:40;27.52;;;14.82;;
39214;SDS011;24932;51.746;14.334;2022-11-15T16:52:41;31.37;;;14.98;;
39214;SDS011;24932;51.746;14.334;2022-11-15T16:56:40;29.15;;;14.75;;
39214;SDS011;24932;51.746;14.334;2022-11-15T17:00:40;41.0;;;18.4;;
39214;SDS011;24932;51.746;14.334;2022-11-15T17:04:40;37.65;;;17.6;;
39214;SDS011;24932;51.746;14.334;2022-11-15T17:08:40;37.5;;;17.15;;
39214;SDS011;24932;51.746;14.334;2022-11-15T17:12:40;26.1;;;14.65;;
39214;SDS011;24932;51.746;14.334;2022-11-15T17:16:40;37.23;;;17.1;;
39214;SDS011;24932;51.746;14.334;2022-11-15T17:20:40;29.58;;;16.5;;
39214;SDS011;24932;51.746;14.334;2022-11-15T17:24:40;26.67;;;15.32;;
39214;SDS011;24932;51.746;14.334;2022-11-15T17:28:40;29.17;;;16.37;;
39214;SDS011;24932;51.746;14.334;2022-11-15T17:32:40;29.27;;;16.57;;
39214;SDS011;24932;51.746;14.334;2022-11-15T17:36:40;35.97;;;16.12;;
39214;SDS011;24932;51.746;14.334;2022-11-15T17:40:40;34.38;;;18.3;;
39214;SDS011;24932;51.746;14.334;2022-11-15T17:44:40;35.92;;;18.87;;
39214;SDS011;24932;51.746;14.334;2022-11-15T17:48:40;35.92;;;19.67;;
39214;SDS011;24932;51.746;14.334;2022-11-15T17:52:40;35.3;;;19.1;;
39214;SDS011;24932;51.746;14.334;2022-11-15T17:56:41;39.03;;;20.65;;
39214;SDS011;24932;51.746;14.334;2022-11-15T18:00:40;35.47;;;19.9;;
39214;SDS011;24932;51.746;14.334;2022-11-15T18:04:40;44.15;;;21.2;;
39214;SDS011;24932;51.746;14.334;2022-11-15T18:08:41;37.03;;;21.8;;
39214;SDS011;24932;51.746;14.334;2022-11-15T18:12:40;39.58;;;21.17;;
39214;SDS011;24932;51.746;14.334;2022-11-15T18:16:40;45.3;;;20.42;;
39214;SDS011;24932;51.746;14.334;2022-11-15T18:20:40;43.58;;;20.5;;
39214;SDS011;24932;51.746;14.334;2022-11-15T18:24:40;42.35;;;21.62;;
39214;SDS011;24932;51.746;14.334;2022-11-15T18:28:41;45.0;;;22.52;;
39214;SDS011;24932;51.746;14.334;2022-11-15T18:32:41;41.37;;;21.4;;
39214;SDS011;24932;51.746;14.334;2022-11-15T18:36:40;42.67;;;21.45;;
39214;SDS011;24932;51.746;14.334;2022-11-15T18:40:41;39.35;;;20.95;;
39214;SDS011;24932;51.746;14.334;2022-11-15T18:44:40;40.72;;;21.15;;
39214;SDS011;24932;51.746;14.334;2022-11-15T18:48:41;39.8;;;19.4;;
39214;SDS011;24932;51.746;14.334;2022-11-15T18:52:41;53.47;;;20.73;;
39214;SDS011;24932;51.746;14.334;2022-11-15T18:56:40;42.97;;;21.83;;
39214;SDS011;24932;51.746;14.334;2022-11-15T19:00:40;48.33;;;21.83;;
39214;SDS011;24932;51.746;14.334;2022-11-15T19:04:40;46.07;;;21.63;;
39214;SDS011;24932;51.746;14.334;2022-11-15T19:08:41;53.03;;;24.45;;
39214;SDS011;24932;51.746;14.334;2022-11-15T19:12:40;48.95;;;21.65;;
39214;SDS011;24932;51.746;14.334;2022-11-15T19:16:41;44.95;;;21.98;;
39214;SDS011;24932;51.746;14.334;2022-11-15T19:20:41;55.1;;;23.8;;
39214;SDS011;24932;51.746;14.334;2022-11-15T19:24:40;59.7;;;23.92;;
39214;SDS011;24932;51.746;14.334;2022-11-15T19:28:41;45.6;;;21.58;;
39214;SDS011;24932;51.746;14.334;2022-11-15T19:32:40;50.83;;;21.9;;
39214;SDS011;24932;51.746;14.334;2022-11-15T19:36:40;52.77;;;24.63;;
39214;SDS011;24932;51.746;14.334;2022-11-15T19:40:41;54.8;;;24.0;;
39214;SDS011;24932;51.746;14.334;2022-11-15T19:44:40;56.8;;;24.1;;
39214;SDS011;24932;51.746;14.334;2022-11-15T19:48:40;60.03;;;23.83;;
39214;SDS011;24932;51.746;14.334;2022-11-15T19:52:40;62.4;;;25.73;;
39214;SDS011;24932;51.746;14.334;2022-11-15T19:56:40;57.62;;;25.58;;
39214;SDS011;24932;51.746;14.334;2022-11-15T20:00:40;53.33;;;24.97;;
39214;SDS011;24932;51.746;14.334;2022-11-15T20:04:40;64.17;;;23.97;;
39214;SDS011;24932;51.746;14.334;2022-11-15T20:08:40;58.27;;;23.57;;
39214;SDS011;24932;51.746;14.334;2022-11-15T20:12:41;59.4;;;23.8;;
39214;SDS011;24932;51.746;14.334;2022-11-15T20:16:40;57.07;;;22.7;;
39214;SDS011;24932;51.746;14.334;2022-11-15T20:20:41;51.73;;;24.07;;
39214;SDS011;24932;51.746;14.334;2022-11-15T20:24:41;59.73;;;22.27;;
39214;SDS011;24932;51.746;14.334;2022-11-15T20:28:40;54.93;;;24.17;;
39214;SDS011;24932;51.746;14.334;2022-11-15T20:32:41;59.73;;;25.07;;
39214;SDS011;24932;51.746;14.334;2022-11-15T20:36:40;56.8;;;22.3;;
39214;SDS011;24932;51.746;14.334;2022-11-15T20:40:43;57.53;;;22.67;;
39214;SDS011;24932;51.746;14.334;2022-11-15T20:44:40;65.37;;;25.77;;
39214;SDS011;24932;51.746;14.334;2022-11-15T20:48:40;70.9;;;25.23;;
39214;SDS011;24932;51.746;14.334;2022-11-15T20:52:40;71.57;;;24.87;;
39214;SDS011;24932;51.746;14.334;2022-11-15T20:56:40;58.77;;;24.2;;
39214;SDS011;24932;51.746;14.334;2022-11-15T21:00:40;64.83;;;26.47;;
39214;SDS011;24932;51.746;14.334;2022-11-15T21:04:40;81.47;;;27.57;;
39214;SDS011;24932;51.746;14.334;2022-11-15T21:08:40;80.3;;;26.1;;
39214;SDS011;24932;51.746;14.334;2022-11-15T21:12:40;70.3;;;26.3;;
39214;SDS011;24932;51.746;14.334;2022-11-15T21:16:41;77.0;;;25.13;;
39214;SDS011;24932;51.746;14.334;2022-11-15T21:20:40;79.0;;;24.57;;
39214;SDS011;24932;51.746;14.334;2022-11-15T21:24:40;79.93;;;25.23;;
39214;SDS011;24932;51.746;14.334;2022-11-15T21:28:41;65.4;;;25.8;;
39214;SDS011;24932;51.746;14.334;2022-11-15T21:32:42;67.03;;;25.2;;
39214;SDS011;24932;51.746;14.334;2022-11-15T21:36:40;68.77;;;25.47;;
39214;SDS011;24932;51.746;14.334;2022-11-15T21:40:40;75.3;;;27.1;;
39214;SDS011;24932;51.746;14.334;2022-11-15T21:44:40;82.17;;;25.87;;
39214;SDS011;24932;51.746;14.334;2022-11-15T21:48:40;79.6;;;25.73;;
39214;SDS011;24932;51.746;14.334;2022-11-15T21:52:41;72.8;;;26.53;;
39214;SDS011;24932;51.746;14.334;2022-11-15T21:56:40;72.87;;;27.37;;
39214;SDS011;24932;51.746;14.334;2022-11-15T22:00:40;77.9;;;28.13;;
39214;SDS011;24932;51.746;14.334;2022-11-15T22:04:40;101.7;;;29.9;;
39214;SDS011;24932;51.746;14.334;2022-11-15T22:08:41;92.8;;;27.4;;
39214;SDS011;24932;51.746;14.334;2022-11-15T22:12:40;83.73;;;26.33;;
39214;SDS011;24932;51.746;14.334;2022-11-15T22:16:40;89.63;;;31.07;;
39214;SDS011;24932;51.746;14.334;2022-11-15T22:20:51;93.1;;;29.43;;
39214;SDS011;24932;51.746;14.334;2022-11-15T22:24:41;80.13;;;25.83;;
39214;SDS011;24932;51.746;14.334;2022-11-15T22:28:40;102.73;;;28.7;;
39214;SDS011;24932;51.746;14.334;2022-11-15T22:32:40;91.73;;;27.83;;
39214;SDS011;24932;51.746;14.334;2022-11-15T22:37:18;95.63;;;29.97;;
39214;SDS011;24932;51.746;14.334;2022-11-15T22:40:40;113.83;;;26.87;;
39214;SDS011;24932;51.746;14.334;2022-11-15T22:44:40;78.2;;;28.2;;
39214;SDS011;24932;51.746;14.334;2022-11-15T22:48:40;90.73;;;26.8;;
39214;SDS011;24932;51.746;14.334;2022-11-15T22:52:40;82.8;;;27.13;;
39214;SDS011;24932;51.746;14.334;2022-11-15T22:56:40;94.63;;;26.1;;
39214;SDS011;24932;51.746;14.334;2022-11-15T23:00:40;105.13;;;26.97;;
39214;SDS011;24932;51.746;14.334;2022-11-15T23:04:40;98.53;;;29.27;;
39214;SDS011;24932;51.746;14.334;2022-11-15T23:08:41;82.07;;;26.17;;
39214;SDS011;24932;51.746;14.334;2022-11-15T23:12:40;88.17;;;26.8;;
39214;SDS011;24932;51.746;14.334;2022-11-15T23:16:40;89.83;;;27.97;;